sensor_id;sensor_type;location;lat;lon;timestamp;P1;durP1;ratioP1;P2;durP2;ratioP2
36415;SDS011;22447;44.530;18.620;2022-08-30T00:01:28;24.42;;;17.30;;
36415;SDS011;22447;44.530;18.620;2022-08-30T00:03:56;25.35;;;18.83;;
36415;SDS011;22447;44.530;18.620;2022-08-30T00:06:23;27.48;;;17.08;;
36415;SDS011;22447;44.530;18.620;2022-08-30T00:08:51;23.27;;;18.98;;
36415;SDS011;22447;44.530;18.620;2022-08-30T00:11:19;23.83;;;17.70;;
36415;SDS011;22447;44.530;18.620;2022-08-30T00:13:47;36.67;;;17.10;;
36415;SDS011;22447;44.530;18.620;2022-08-30T00:16:16;25.40;;;17.27;;
36415;SDS011;22447;44.530;18.620;2022-08-30T00:18:44;22.92;;;16.58;;
36415;SDS011;22447;44.530;18.620;2022-08-30T00:21:10;27.58;;;16.67;;
36415;SDS011;22447;44.530;18.620;2022-08-30T00:23:36;23.60;;;17.77;;
36415;SDS011;22447;44.530;18.620;2022-08-30T00:26:03;28.42;;;18.48;;
36415;SDS011;22447;44.530;18.620;2022-08-30T00:28:29;23.80;;;17.13;;
36415;SDS011;22447;44.530;18.620;2022-08-30T00:30:56;28.73;;;19.35;;
36415;SDS011;22447;44.530;18.620;2022-08-30T00:33:22;24.38;;;17.70;;
36415;SDS011;22447;44.530;18.620;2022-08-30T00:35:48;24.17;;;17.38;;
36415;SDS011;22447;44.530;18.620;2022-08-30T00:38:14;26.73;;;17.52;;
36415;SDS011;22447;44.530;18.620;2022-08-30T00:40:41;32.53;;;18.70;;
36415;SDS011;22447;44.530;18.620;2022-08-30T00:43:11;32.00;;;18.40;;
36415;SDS011;22447;44.530;18.620;2022-08-30T00:45:40;24.33;;;18.48;;
36415;SDS011;22447;44.530;18.620;2022-08-30T00:48:06;27.27;;;19.48;;
36415;SDS011;22447;44.530;18.620;2022-08-30T00:50:33;26.27;;;18.23;;
36415;SDS011;22447;44.530;18.620;2022-08-30T00:53:07;30.85;;;19.30;;
36415;SDS011;22447;44.530;18.620;2022-08-30T00:55:37;23.58;;;19.00;;
36415;SDS011;22447;44.530;18.620;2022-08-30T00:58:04;37.75;;;19.40;;
36415;SDS011;22447;44.530;18.620;2022-08-30T01:00:32;32.55;;;19.75;;
36415;SDS011;22447;44.530;18.620;2022-08-30T01:02:59;35.70;;;19.48;;
36415;SDS011;22447;44.530;18.620;2022-08-30T01:05:25;28.02;;;19.15;;
36415;SDS011;22447;44.530;18.620;2022-08-30T01:07:51;30.58;;;19.83;;
36415;SDS011;22447;44.530;18.620;2022-08-30T01:10:17;28.40;;;20.20;;
36415;SDS011;22447;44.530;18.620;2022-08-30T01:12:43;29.35;;;19.38;;
36415;SDS011;22447;44.530;18.620;2022-08-30T01:15:10;36.00;;;19.35;;
36415;SDS011;22447;44.530;18.620;2022-08-30T01:17:39;28.42;;;18.95;;
36415;SDS011;22447;44.530;18.620;2022-08-30T01:20:11;28.55;;;19.33;;
36415;SDS011;22447;44.530;18.620;2022-08-30T01:25:15;30.02;;;18.50;;
36415;SDS011;22447;44.530;18.620;2022-08-30T01:27:47;33.28;;;18.92;;
36415;SDS011;22447;44.530;18.620;2022-08-30T01:30:17;29.45;;;17.80;;
36415;SDS011;22447;44.530;18.620;2022-08-30T01:32:45;23.48;;;17.92;;
36415;SDS011;22447;44.530;18.620;2022-08-30T01:35:14;27.75;;;19.05;;
36415;SDS011;22447;44.530;18.620;2022-08-30T01:37:42;26.52;;;18.25;;
36415;SDS011;22447;44.530;18.620;2022-08-30T01:40:09;27.17;;;18.92;;
36415;SDS011;22447;44.530;18.620;2022-08-30T01:42:37;24.90;;;17.90;;
36415;SDS011;22447;44.530;18.620;2022-08-30T01:45:04;26.83;;;19.08;;
36415;SDS011;22447;44.530;18.620;2022-08-30T01:47:31;26.42;;;19.25;;
36415;SDS011;22447;44.530;18.620;2022-08-30T01:49:57;24.67;;;18.85;;
36415;SDS011;22447;44.530;18.620;2022-08-30T01:52:23;29.05;;;19.45;;
36415;SDS011;22447;44.530;18.620;2022-08-30T01:54:49;24.38;;;18.98;;
36415;SDS011;22447;44.530;18.620;2022-08-30T01:57:17;29.35;;;17.73;;
36415;SDS011;22447;44.530;18.620;2022-08-30T01:59:45;28.48;;;17.85;;
36415;SDS011;22447;44.530;18.620;2022-08-30T02:02:12;28.20;;;18.20;;
36415;SDS011;22447;44.530;18.620;2022-08-30T02:04:40;23.02;;;16.90;;
36415;SDS011;22447;44.530;18.620;2022-08-30T02:07:07;22.67;;;17.48;;
36415;SDS011;22447;44.530;18.620;2022-08-30T02:09:33;21.70;;;15.85;;
36415;SDS011;22447;44.530;18.620;2022-08-30T02:12:02;20.77;;;15.90;;
36415;SDS011;22447;44.530;18.620;2022-08-30T02:14:30;27.05;;;15.90;;
36415;SDS011;22447;44.530;18.620;2022-08-30T02:16:56;21.63;;;15.60;;
36415;SDS011;22447;44.530;18.620;2022-08-30T02:19:22;24.05;;;16.52;;
36415;SDS011;22447;44.530;18.620;2022-08-30T02:21:48;24.20;;;17.20;;
36415;SDS011;22447;44.530;18.620;2022-08-30T02:24:14;28.65;;;17.85;;
36415;SDS011;22447;44.530;18.620;2022-08-30T02:26:40;25.23;;;17.20;;
36415;SDS011;22447;44.530;18.620;2022-08-30T02:29:06;24.00;;;17.33;;
36415;SDS011;22447;44.530;18.620;2022-08-30T02:31:33;25.65;;;17.98;;
36415;SDS011;22447;44.530;18.620;2022-08-30T02:33:59;26.05;;;18.40;;
36415;SDS011;22447;44.530;18.620;2022-08-30T02:36:25;27.02;;;18.23;;
36415;SDS011;22447;44.530;18.620;2022-08-30T02:38:51;45.35;;;20.33;;
36415;SDS011;22447;44.530;18.620;2022-08-30T02:41:17;44.22;;;20.73;;
36415;SDS011;22447;44.530;18.620;2022-08-30T02:43:44;46.70;;;19.75;;
36415;SDS011;22447;44.530;18.620;2022-08-30T02:46:11;34.90;;;19.15;;
36415;SDS011;22447;44.530;18.620;2022-08-30T02:48:37;40.73;;;20.50;;
36415;SDS011;22447;44.530;18.620;2022-08-30T02:51:07;44.17;;;19.98;;
36415;SDS011;22447;44.530;18.620;2022-08-30T02:53:35;40.47;;;18.63;;
36415;SDS011;22447;44.530;18.620;2022-08-30T02:56:01;44.78;;;20.02;;
36415;SDS011;22447;44.530;18.620;2022-08-30T02:58:28;36.13;;;20.05;;
36415;SDS011;22447;44.530;18.620;2022-08-30T03:00:54;38.85;;;20.55;;
36415;SDS011;22447;44.530;18.620;2022-08-30T03:03:20;36.08;;;20.10;;
36415;SDS011;22447;44.530;18.620;2022-08-30T03:05:46;36.83;;;20.75;;
36415;SDS011;22447;44.530;18.620;2022-08-30T03:08:12;30.58;;;19.65;;
36415;SDS011;22447;44.530;18.620;2022-08-30T03:10:38;25.15;;;17.42;;
36415;SDS011;22447;44.530;18.620;2022-08-30T03:13:04;26.48;;;19.92;;
36415;SDS011;22447;44.530;18.620;2022-08-30T03:15:32;27.42;;;19.38;;
36415;SDS011;22447;44.530;18.620;2022-08-30T03:17:59;24.25;;;18.95;;
36415;SDS011;22447;44.530;18.620;2022-08-30T03:20:26;28.23;;;20.02;;
36415;SDS011;22447;44.530;18.620;2022-08-30T03:22:53;25.90;;;19.23;;
36415;SDS011;22447;44.530;18.620;2022-08-30T03:25:19;30.73;;;19.45;;
36415;SDS011;22447;44.530;18.620;2022-08-30T03:27:47;30.23;;;19.58;;
36415;SDS011;22447;44.530;18.620;2022-08-30T03:30:15;24.13;;;18.77;;
36415;SDS011;22447;44.530;18.620;2022-08-30T03:32:41;37.95;;;19.38;;
36415;SDS011;22447;44.530;18.620;2022-08-30T03:35:07;34.20;;;19.77;;
36415;SDS011;22447;44.530;18.620;2022-08-30T03:37:34;32.10;;;21.98;;
36415;SDS011;22447;44.530;18.620;2022-08-30T03:40:00;30.00;;;19.25;;
36415;SDS011;22447;44.530;18.620;2022-08-30T03:42:28;28.20;;;18.75;;
36415;SDS011;22447;44.530;18.620;2022-08-30T03:44:54;30.98;;;19.95;;
36415;SDS011;22447;44.530;18.620;2022-08-30T03:47:20;29.00;;;20.17;;
36415;SDS011;22447;44.530;18.620;2022-08-30T03:49:46;29.80;;;20.52;;
36415;SDS011;22447;44.530;18.620;2022-08-30T03:52:11;29.67;;;20.85;;
36415;SDS011;22447;44.530;18.620;2022-08-30T03:54:37;25.58;;;20.23;;
36415;SDS011;22447;44.530;18.620;2022-08-30T03:57:04;28.48;;;19.45;;
36415;SDS011;22447;44.530;18.620;2022-08-30T03:59:31;23.00;;;19.25;;
36415;SDS011;22447;44.530;18.620;2022-08-30T04:01:57;25.48;;;18.92;;
36415;SDS011;22447;44.530;18.620;2022-08-30T04:04:23;27.85;;;19.92;;
36415;SDS011;22447;44.530;18.620;2022-08-30T04:06:50;29.85;;;19.65;;
36415;SDS011;22447;44.530;18.620;2022-08-30T04:09:16;29.67;;;18.85;;
36415;SDS011;22447;44.530;18.620;2022-08-30T04:11:42;24.95;;;18.15;;
36415;SDS011;22447;44.530;18.620;2022-08-30T04:14:08;26.52;;;19.70;;
36415;SDS011;22447;44.530;18.620;2022-08-30T04:16:34;26.38;;;19.52;;
36415;SDS011;22447;44.530;18.620;2022-08-30T04:19:00;26.20;;;18.35;;
36415;SDS011;22447;44.530;18.620;2022-08-30T04:21:26;34.20;;;20.10;;
36415;SDS011;22447;44.530;18.620;2022-08-30T04:23:52;29.02;;;20.75;;
36415;SDS011;22447;44.530;18.620;2022-08-30T04:26:18;30.88;;;18.77;;
36415;SDS011;22447;44.530;18.620;2022-08-30T04:28:44;32.28;;;20.20;;
36415;SDS011;22447;44.530;18.620;2022-08-30T04:31:12;27.15;;;19.77;;
36415;SDS011;22447;44.530;18.620;2022-08-30T04:33:40;28.27;;;19.77;;
36415;SDS011;22447;44.530;18.620;2022-08-30T04:36:06;29.73;;;19.83;;
36415;SDS011;22447;44.530;18.620;2022-08-30T04:38:34;31.13;;;20.13;;
36415;SDS011;22447;44.530;18.620;2022-08-30T04:41:01;29.52;;;19.27;;
36415;SDS011;22447;44.530;18.620;2022-08-30T04:43:28;27.38;;;18.88;;
36415;SDS011;22447;44.530;18.620;2022-08-30T04:45:54;31.30;;;21.60;;
36415;SDS011;22447;44.530;18.620;2022-08-30T04:48:21;28.00;;;18.10;;
36415;SDS011;22447;44.530;18.620;2022-08-30T04:50:47;27.23;;;19.00;;
36415;SDS011;22447;44.530;18.620;2022-08-30T04:53:14;28.15;;;19.10;;
36415;SDS011;22447;44.530;18.620;2022-08-30T04:55:41;29.52;;;19.40;;
36415;SDS011;22447;44.530;18.620;2022-08-30T04:58:08;33.95;;;18.98;;
36415;SDS011;22447;44.530;18.620;2022-08-30T05:00:35;33.22;;;19.83;;
36415;SDS011;22447;44.530;18.620;2022-08-30T05:03:02;32.72;;;18.50;;
36415;SDS011;22447;44.530;18.620;2022-08-30T05:05:28;32.58;;;18.63;;
36415;SDS011;22447;44.530;18.620;2022-08-30T05:08:04;28.73;;;18.80;;
36415;SDS011;22447;44.530;18.620;2022-08-30T05:10:32;34.33;;;18.83;;
36415;SDS011;22447;44.530;18.620;2022-08-30T05:12:58;38.38;;;19.15;;
36415;SDS011;22447;44.530;18.620;2022-08-30T05:15:24;30.10;;;17.55;;
36415;SDS011;22447;44.530;18.620;2022-08-30T05:17:50;39.30;;;19.25;;
36415;SDS011;22447;44.530;18.620;2022-08-30T05:20:16;36.13;;;18.38;;
36415;SDS011;22447;44.530;18.620;2022-08-30T05:22:43;37.22;;;18.23;;
36415;SDS011;22447;44.530;18.620;2022-08-30T05:25:19;38.08;;;17.38;;
36415;SDS011;22447;44.530;18.620;2022-08-30T05:27:47;38.88;;;18.40;;
36415;SDS011;22447;44.530;18.620;2022-08-30T05:30:14;66.60;;;22.02;;
36415;SDS011;22447;44.530;18.620;2022-08-30T05:32:40;66.72;;;23.30;;
36415;SDS011;22447;44.530;18.620;2022-08-30T05:35:07;59.42;;;23.35;;
36415;SDS011;22447;44.530;18.620;2022-08-30T05:37:35;57.10;;;22.10;;
36415;SDS011;22447;44.530;18.620;2022-08-30T05:40:02;54.58;;;22.60;;
36415;SDS011;22447;44.530;18.620;2022-08-30T05:42:29;61.25;;;23.40;;
36415;SDS011;22447;44.530;18.620;2022-08-30T05:44:55;48.50;;;20.92;;
36415;SDS011;22447;44.530;18.620;2022-08-30T05:47:21;49.03;;;21.67;;
36415;SDS011;22447;44.530;18.620;2022-08-30T05:49:47;53.28;;;22.88;;
36415;SDS011;22447;44.530;18.620;2022-08-30T05:52:13;54.65;;;23.80;;
36415;SDS011;22447;44.530;18.620;2022-08-30T05:54:43;48.67;;;22.70;;
36415;SDS011;22447;44.530;18.620;2022-08-30T05:57:10;48.25;;;23.80;;
36415;SDS011;22447;44.530;18.620;2022-08-30T05:59:36;44.13;;;23.38;;
36415;SDS011;22447;44.530;18.620;2022-08-30T06:02:05;52.65;;;23.92;;
36415;SDS011;22447;44.530;18.620;2022-08-30T06:04:31;49.15;;;22.90;;
36415;SDS011;22447;44.530;18.620;2022-08-30T06:06:57;39.17;;;23.13;;
36415;SDS011;22447;44.530;18.620;2022-08-30T06:09:23;39.85;;;22.15;;
36415;SDS011;22447;44.530;18.620;2022-08-30T06:11:49;40.67;;;20.95;;
36415;SDS011;22447;44.530;18.620;2022-08-30T06:14:15;48.50;;;24.55;;
36415;SDS011;22447;44.530;18.620;2022-08-30T06:16:41;51.08;;;22.45;;
36415;SDS011;22447;44.530;18.620;2022-08-30T06:19:10;43.15;;;23.10;;
36415;SDS011;22447;44.530;18.620;2022-08-30T06:21:37;45.22;;;21.45;;
36415;SDS011;22447;44.530;18.620;2022-08-30T06:24:05;40.63;;;22.00;;
36415;SDS011;22447;44.530;18.620;2022-08-30T06:26:37;53.95;;;21.98;;
36415;SDS011;22447;44.530;18.620;2022-08-30T06:29:05;57.72;;;23.33;;
36415;SDS011;22447;44.530;18.620;2022-08-30T06:31:32;49.38;;;21.50;;
36415;SDS011;22447;44.530;18.620;2022-08-30T06:34:02;38.53;;;20.88;;
36415;SDS011;22447;44.530;18.620;2022-08-30T06:36:28;39.55;;;22.15;;
36415;SDS011;22447;44.530;18.620;2022-08-30T06:38:56;36.58;;;21.83;;
36415;SDS011;22447;44.530;18.620;2022-08-30T06:41:24;38.85;;;20.77;;
36415;SDS011;22447;44.530;18.620;2022-08-30T06:43:56;46.40;;;21.70;;
36415;SDS011;22447;44.530;18.620;2022-08-30T06:46:25;35.88;;;18.92;;
36415;SDS011;22447;44.530;18.620;2022-08-30T06:48:54;40.83;;;20.73;;
36415;SDS011;22447;44.530;18.620;2022-08-30T06:51:22;42.80;;;20.75;;
36415;SDS011;22447;44.530;18.620;2022-08-30T06:53:50;45.28;;;20.83;;
36415;SDS011;22447;44.530;18.620;2022-08-30T06:56:18;42.58;;;20.65;;
36415;SDS011;22447;44.530;18.620;2022-08-30T06:58:45;36.40;;;19.10;;
36415;SDS011;22447;44.530;18.620;2022-08-30T07:01:13;44.03;;;20.17;;
36415;SDS011;22447;44.530;18.620;2022-08-30T07:03:42;42.70;;;20.95;;
36415;SDS011;22447;44.530;18.620;2022-08-30T07:06:08;37.22;;;19.38;;
36415;SDS011;22447;44.530;18.620;2022-08-30T07:08:35;37.47;;;19.75;;
36415;SDS011;22447;44.530;18.620;2022-08-30T07:11:02;44.60;;;22.13;;
36415;SDS011;22447;44.530;18.620;2022-08-30T07:13:29;37.78;;;20.60;;
36415;SDS011;22447;44.530;18.620;2022-08-30T07:15:56;35.50;;;20.52;;
36415;SDS011;22447;44.530;18.620;2022-08-30T07:18:22;34.30;;;19.02;;
36415;SDS011;22447;44.530;18.620;2022-08-30T07:21:15;33.20;;;18.58;;
36415;SDS011;22447;44.530;18.620;2022-08-30T07:23:46;49.67;;;21.67;;
36415;SDS011;22447;44.530;18.620;2022-08-30T07:26:17;37.45;;;20.92;;
36415;SDS011;22447;44.530;18.620;2022-08-30T07:28:45;43.25;;;20.88;;
36415;SDS011;22447;44.530;18.620;2022-08-30T07:31:12;45.28;;;21.80;;
36415;SDS011;22447;44.530;18.620;2022-08-30T07:33:40;41.40;;;20.10;;
36415;SDS011;22447;44.530;18.620;2022-08-30T07:36:06;44.53;;;20.67;;
36415;SDS011;22447;44.530;18.620;2022-08-30T07:38:32;39.38;;;20.55;;
36415;SDS011;22447;44.530;18.620;2022-08-30T07:40:59;38.58;;;20.48;;
36415;SDS011;22447;44.530;18.620;2022-08-30T07:43:29;54.42;;;26.15;;
36415;SDS011;22447;44.530;18.620;2022-08-30T07:46:04;62.80;;;27.58;;
36415;SDS011;22447;44.530;18.620;2022-08-30T07:48:31;66.93;;;28.27;;
36415;SDS011;22447;44.530;18.620;2022-08-30T07:50:58;64.35;;;29.88;;
36415;SDS011;22447;44.530;18.620;2022-08-30T07:53:24;63.47;;;26.05;;
36415;SDS011;22447;44.530;18.620;2022-08-30T07:55:51;65.40;;;28.77;;
36415;SDS011;22447;44.530;18.620;2022-08-30T07:58:17;70.07;;;27.30;;
36415;SDS011;22447;44.530;18.620;2022-08-30T08:00:43;67.65;;;28.45;;
36415;SDS011;22447;44.530;18.620;2022-08-30T08:03:09;72.40;;;28.70;;
36415;SDS011;22447;44.530;18.620;2022-08-30T08:05:36;61.53;;;28.35;;
36415;SDS011;22447;44.530;18.620;2022-08-30T08:08:04;64.70;;;28.52;;
36415;SDS011;22447;44.530;18.620;2022-08-30T08:10:30;65.13;;;27.48;;
36415;SDS011;22447;44.530;18.620;2022-08-30T08:12:57;72.80;;;31.45;;
36415;SDS011;22447;44.530;18.620;2022-08-30T08:15:26;76.57;;;31.58;;
36415;SDS011;22447;44.530;18.620;2022-08-30T08:17:53;70.72;;;31.27;;
36415;SDS011;22447;44.530;18.620;2022-08-30T08:20:19;78.97;;;36.08;;
36415;SDS011;22447;44.530;18.620;2022-08-30T08:22:46;69.22;;;31.40;;
36415;SDS011;22447;44.530;18.620;2022-08-30T08:25:12;67.38;;;32.75;;
36415;SDS011;22447;44.530;18.620;2022-08-30T08:27:41;77.68;;;33.78;;
36415;SDS011;22447;44.530;18.620;2022-08-30T08:30:07;66.28;;;29.17;;
36415;SDS011;22447;44.530;18.620;2022-08-30T08:32:34;55.13;;;28.20;;
36415;SDS011;22447;44.530;18.620;2022-08-30T08:35:00;67.90;;;26.95;;
36415;SDS011;22447;44.530;18.620;2022-08-30T08:37:26;59.97;;;27.45;;
36415;SDS011;22447;44.530;18.620;2022-08-30T08:39:52;50.88;;;25.60;;
36415;SDS011;22447;44.530;18.620;2022-08-30T08:45:05;50.45;;;23.90;;
36415;SDS011;22447;44.530;18.620;2022-08-30T08:47:38;49.60;;;24.50;;
36415;SDS011;22447;44.530;18.620;2022-08-30T08:50:12;52.65;;;25.08;;
36415;SDS011;22447;44.530;18.620;2022-08-30T08:52:46;45.53;;;22.95;;
36415;SDS011;22447;44.530;18.620;2022-08-30T08:55:32;50.10;;;24.45;;
36415;SDS011;22447;44.530;18.620;2022-08-30T08:58:00;49.55;;;24.73;;
36415;SDS011;22447;44.530;18.620;2022-08-30T09:00:26;52.00;;;22.17;;
36415;SDS011;22447;44.530;18.620;2022-08-30T09:02:58;44.83;;;22.52;;
36415;SDS011;22447;44.530;18.620;2022-08-30T09:05:33;56.08;;;25.75;;
36415;SDS011;22447;44.530;18.620;2022-08-30T09:08:02;40.85;;;21.13;;
36415;SDS011;22447;44.530;18.620;2022-08-30T09:10:32;50.83;;;23.88;;
36415;SDS011;22447;44.530;18.620;2022-08-30T09:12:59;46.95;;;20.15;;
36415;SDS011;22447;44.530;18.620;2022-08-30T09:15:27;61.13;;;25.77;;
36415;SDS011;22447;44.530;18.620;2022-08-30T09:17:56;55.17;;;23.98;;
36415;SDS011;22447;44.530;18.620;2022-08-30T09:20:33;45.90;;;21.03;;
36415;SDS011;22447;44.530;18.620;2022-08-30T09:25:58;48.47;;;21.85;;
36415;SDS011;22447;44.530;18.620;2022-08-30T09:28:27;52.42;;;21.85;;
36415;SDS011;22447;44.530;18.620;2022-08-30T09:31:00;43.50;;;19.65;;
36415;SDS011;22447;44.530;18.620;2022-08-30T09:33:52;72.00;;;23.58;;
36415;SDS011;22447;44.530;18.620;2022-08-30T09:36:21;50.10;;;19.88;;
36415;SDS011;22447;44.530;18.620;2022-08-30T09:39:01;44.17;;;19.17;;
36415;SDS011;22447;44.530;18.620;2022-08-30T09:44:14;47.08;;;20.25;;
36415;SDS011;22447;44.530;18.620;2022-08-30T09:49:42;35.22;;;17.13;;
36415;SDS011;22447;44.530;18.620;2022-08-30T10:00:24;40.63;;;17.33;;
36415;SDS011;22447;44.530;18.620;2022-08-30T10:02:58;36.53;;;17.80;;
36415;SDS011;22447;44.530;18.620;2022-08-30T10:10:57;42.42;;;17.45;;
36415;SDS011;22447;44.530;18.620;2022-08-30T10:24:28;46.80;;;20.60;;
36415;SDS011;22447;44.530;18.620;2022-08-30T10:27:07;42.03;;;20.10;;
36415;SDS011;22447;44.530;18.620;2022-08-30T10:29:46;46.05;;;20.63;;
36415;SDS011;22447;44.530;18.620;2022-08-30T10:32:19;47.10;;;20.02;;
36415;SDS011;22447;44.530;18.620;2022-08-30T10:35:01;38.60;;;19.50;;
36415;SDS011;22447;44.530;18.620;2022-08-30T10:37:33;38.55;;;19.73;;
36415;SDS011;22447;44.530;18.620;2022-08-30T10:40:12;43.83;;;19.52;;
36415;SDS011;22447;44.530;18.620;2022-08-30T10:43:01;37.92;;;16.00;;
36415;SDS011;22447;44.530;18.620;2022-08-30T10:45:35;43.50;;;16.65;;
36415;SDS011;22447;44.530;18.620;2022-08-30T10:48:27;35.45;;;15.07;;
36415;SDS011;22447;44.530;18.620;2022-08-30T10:51:01;28.50;;;12.70;;
36415;SDS011;22447;44.530;18.620;2022-08-30T10:53:38;43.25;;;17.98;;
36415;SDS011;22447;44.530;18.620;2022-08-30T10:56:10;31.92;;;15.02;;
36415;SDS011;22447;44.530;18.620;2022-08-30T10:58:40;27.88;;;13.43;;
36415;SDS011;22447;44.530;18.620;2022-08-30T11:01:22;28.00;;;12.65;;
36415;SDS011;22447;44.530;18.620;2022-08-30T11:07:13;26.70;;;11.70;;
36415;SDS011;22447;44.530;18.620;2022-08-30T11:12:35;27.63;;;12.55;;
36415;SDS011;22447;44.530;18.620;2022-08-30T11:15:21;20.05;;;13.35;;
36415;SDS011;22447;44.530;18.620;2022-08-30T11:18:01;19.65;;;11.60;;
36415;SDS011;22447;44.530;18.620;2022-08-30T11:20:42;22.60;;;10.80;;
36415;SDS011;22447;44.530;18.620;2022-08-30T11:26:07;22.75;;;11.45;;
36415;SDS011;22447;44.530;18.620;2022-08-30T11:38:58;14.30;;;11.32;;
36415;SDS011;22447;44.530;18.620;2022-08-30T11:46:46;21.10;;;14.90;;
36415;SDS011;22447;44.530;18.620;2022-08-30T11:54:39;19.63;;;15.10;;
36415;SDS011;22447;44.530;18.620;2022-08-30T12:00:25;24.73;;;16.55;;
36415;SDS011;22447;44.530;18.620;2022-08-30T12:02:59;21.52;;;16.98;;
36415;SDS011;22447;44.530;18.620;2022-08-30T12:10:55;20.65;;;16.70;;
36415;SDS011;22447;44.530;18.620;2022-08-30T12:18:44;22.80;;;16.92;;
36415;SDS011;22447;44.530;18.620;2022-08-30T12:21:13;21.52;;;17.83;;
36415;SDS011;22447;44.530;18.620;2022-08-30T12:26:41;20.92;;;16.40;;
36415;SDS011;22447;44.530;18.620;2022-08-30T12:29:19;23.67;;;18.35;;
36415;SDS011;22447;44.530;18.620;2022-08-30T12:31:57;23.55;;;20.13;;
36415;SDS011;22447;44.530;18.620;2022-08-30T12:34:29;28.13;;;19.65;;
36415;SDS011;22447;44.530;18.620;2022-08-30T12:37:03;27.08;;;19.73;;
36415;SDS011;22447;44.530;18.620;2022-08-30T12:44:58;46.40;;;21.75;;
36415;SDS011;22447;44.530;18.620;2022-08-30T12:47:32;37.67;;;19.45;;
36415;SDS011;22447;44.530;18.620;2022-08-30T12:50:05;39.90;;;20.23;;
36415;SDS011;22447;44.530;18.620;2022-08-30T12:52:34;33.47;;;18.50;;
36415;SDS011;22447;44.530;18.620;2022-08-30T12:58:05;30.55;;;18.45;;
36415;SDS011;22447;44.530;18.620;2022-08-30T13:00:43;41.95;;;18.67;;
36415;SDS011;22447;44.530;18.620;2022-08-30T13:09:27;28.20;;;15.55;;
36415;SDS011;22447;44.530;18.620;2022-08-30T13:11:56;38.30;;;17.05;;
36415;SDS011;22447;44.530;18.620;2022-08-30T13:17:04;36.55;;;15.10;;
36415;SDS011;22447;44.530;18.620;2022-08-30T13:19:39;32.78;;;14.73;;
36415;SDS011;22447;44.530;18.620;2022-08-30T13:24:51;25.25;;;15.20;;
36415;SDS011;22447;44.530;18.620;2022-08-30T13:27:17;32.00;;;14.98;;
36415;SDS011;22447;44.530;18.620;2022-08-30T13:29:45;25.23;;;13.85;;
36415;SDS011;22447;44.530;18.620;2022-08-30T13:32:11;28.40;;;13.63;;
36415;SDS011;22447;44.530;18.620;2022-08-30T13:34:38;24.70;;;13.82;;
36415;SDS011;22447;44.530;18.620;2022-08-30T13:37:04;16.65;;;12.05;;
36415;SDS011;22447;44.530;18.620;2022-08-30T13:39:32;20.35;;;12.88;;
36415;SDS011;22447;44.530;18.620;2022-08-30T13:41:58;19.10;;;13.07;;
36415;SDS011;22447;44.530;18.620;2022-08-30T13:44:24;19.58;;;13.20;;
36415;SDS011;22447;44.530;18.620;2022-08-30T13:46:51;21.25;;;12.98;;
36415;SDS011;22447;44.530;18.620;2022-08-30T13:49:22;24.88;;;13.30;;
36415;SDS011;22447;44.530;18.620;2022-08-30T13:51:52;20.55;;;13.05;;
36415;SDS011;22447;44.530;18.620;2022-08-30T13:54:18;20.00;;;13.15;;
36415;SDS011;22447;44.530;18.620;2022-08-30T13:56:47;22.98;;;13.77;;
36415;SDS011;22447;44.530;18.620;2022-08-30T13:59:19;24.17;;;13.57;;
36415;SDS011;22447;44.530;18.620;2022-08-30T14:01:46;21.10;;;13.32;;
36415;SDS011;22447;44.530;18.620;2022-08-30T14:04:12;17.88;;;13.48;;
36415;SDS011;22447;44.530;18.620;2022-08-30T14:06:39;25.27;;;13.80;;
36415;SDS011;22447;44.530;18.620;2022-08-30T14:09:05;21.08;;;13.23;;
36415;SDS011;22447;44.530;18.620;2022-08-30T14:11:32;26.92;;;13.02;;
36415;SDS011;22447;44.530;18.620;2022-08-30T14:13:59;25.85;;;13.75;;
36415;SDS011;22447;44.530;18.620;2022-08-30T14:16:25;20.08;;;13.23;;
36415;SDS011;22447;44.530;18.620;2022-08-30T14:18:51;23.77;;;13.15;;
36415;SDS011;22447;44.530;18.620;2022-08-30T14:21:17;22.70;;;13.60;;
36415;SDS011;22447;44.530;18.620;2022-08-30T14:23:43;27.17;;;14.65;;
36415;SDS011;22447;44.530;18.620;2022-08-30T14:26:14;28.65;;;13.05;;
36415;SDS011;22447;44.530;18.620;2022-08-30T14:28:43;20.60;;;13.45;;
36415;SDS011;22447;44.530;18.620;2022-08-30T14:31:09;31.17;;;16.58;;
36415;SDS011;22447;44.530;18.620;2022-08-30T14:33:36;30.30;;;15.82;;
36415;SDS011;22447;44.530;18.620;2022-08-30T14:36:02;24.40;;;14.93;;
36415;SDS011;22447;44.530;18.620;2022-08-30T14:38:28;27.33;;;15.60;;
36415;SDS011;22447;44.530;18.620;2022-08-30T14:40:54;28.42;;;15.75;;
36415;SDS011;22447;44.530;18.620;2022-08-30T14:43:21;28.73;;;16.55;;
36415;SDS011;22447;44.530;18.620;2022-08-30T14:45:47;30.02;;;16.60;;
36415;SDS011;22447;44.530;18.620;2022-08-30T14:48:12;33.35;;;16.20;;
36415;SDS011;22447;44.530;18.620;2022-08-30T14:50:39;26.27;;;15.77;;
36415;SDS011;22447;44.530;18.620;2022-08-30T14:53:05;24.42;;;16.67;;
36415;SDS011;22447;44.530;18.620;2022-08-30T14:55:31;25.60;;;16.63;;
36415;SDS011;22447;44.530;18.620;2022-08-30T14:57:58;26.83;;;15.55;;
36415;SDS011;22447;44.530;18.620;2022-08-30T15:00:25;36.13;;;16.13;;
36415;SDS011;22447;44.530;18.620;2022-08-30T15:02:51;29.33;;;14.88;;
36415;SDS011;22447;44.530;18.620;2022-08-30T15:05:17;22.52;;;14.70;;
36415;SDS011;22447;44.530;18.620;2022-08-30T15:07:44;20.20;;;12.40;;
36415;SDS011;22447;44.530;18.620;2022-08-30T15:10:14;21.95;;;11.95;;
36415;SDS011;22447;44.530;18.620;2022-08-30T15:12:45;18.35;;;11.48;;
36415;SDS011;22447;44.530;18.620;2022-08-30T15:15:16;17.95;;;11.70;;
36415;SDS011;22447;44.530;18.620;2022-08-30T15:17:44;16.90;;;10.63;;
36415;SDS011;22447;44.530;18.620;2022-08-30T15:20:11;17.77;;;10.05;;
36415;SDS011;22447;44.530;18.620;2022-08-30T15:22:37;18.45;;;9.50;;
36415;SDS011;22447;44.530;18.620;2022-08-30T15:25:03;17.38;;;9.23;;
36415;SDS011;22447;44.530;18.620;2022-08-30T15:27:30;18.05;;;9.30;;
36415;SDS011;22447;44.530;18.620;2022-08-30T15:29:56;21.08;;;10.38;;
36415;SDS011;22447;44.530;18.620;2022-08-30T15:32:22;20.65;;;10.60;;
36415;SDS011;22447;44.530;18.620;2022-08-30T15:34:48;14.05;;;8.45;;
36415;SDS011;22447;44.530;18.620;2022-08-30T15:37:14;14.57;;;8.27;;
36415;SDS011;22447;44.530;18.620;2022-08-30T15:39:47;17.17;;;8.77;;
36415;SDS011;22447;44.530;18.620;2022-08-30T15:42:14;20.52;;;10.35;;
36415;SDS011;22447;44.530;18.620;2022-08-30T15:44:40;14.63;;;8.38;;
36415;SDS011;22447;44.530;18.620;2022-08-30T15:47:06;17.65;;;7.97;;
36415;SDS011;22447;44.530;18.620;2022-08-30T15:49:32;15.48;;;8.32;;
36415;SDS011;22447;44.530;18.620;2022-08-30T15:52:01;15.25;;;8.60;;
36415;SDS011;22447;44.530;18.620;2022-08-30T15:54:29;16.65;;;8.23;;
36415;SDS011;22447;44.530;18.620;2022-08-30T15:56:55;20.00;;;8.75;;
36415;SDS011;22447;44.530;18.620;2022-08-30T15:59:28;16.00;;;7.78;;
36415;SDS011;22447;44.530;18.620;2022-08-30T16:01:58;13.75;;;7.80;;